Time;durP1;ratioP1;P1;durP2;ratioP2;P2;SDS_P1;SDS_P2;PMS_P1;PMS_P2;Temp;Humidity;BMP_temperature;BMP_pressure;BME280_temperature;BME280_humidity;BME280_pressure;Samples;Min_cycle;Max_cycle;Signal;HPM_P1;HPM_P2
2024/02/08 00:01:51;;;;;;;9.20;5.28;;;;;;;;;;5048073;28;20277;-64
2024/02/08 00:04:19;;;;;;;7.07;6.30;;;;;;;;;;5048491;28;20562;-66
2024/02/08 00:06:48;;;;;;;5.63;5.07;;;;;;;;;;5037895;28;20200;-64
2024/02/08 00:09:17;;;;;;;5.45;4.63;;;;;;;;;;5045824;28;20200;-65
2024/02/08 00:11:45;;;;;;;9.68;5.07;;;;;;;;;;5043086;28;20197;-64
2024/02/08 00:14:13;;;;;;;9.20;5.85;;;;;;;;;;5047481;28;20209;-65
2024/02/08 00:16:41;;;;;;;8.10;5.55;;;;;;;;;;5045388;28;20211;-64
2024/02/08 00:19:09;;;;;;;6.63;5.38;;;;;;;;;;5037962;28;20597;-64
2024/02/08 00:21:38;;;;;;;9.10;5.68;;;;;;;;;;5040581;28;20499;-64
2024/02/08 00:24:08;;;;;;;9.70;5.47;;;;;;;;;;5052705;28;20204;-64
2024/02/08 00:26:36;;;;;;;8.15;6.10;;;;;;;;;;5045564;28;20197;-65
2024/02/08 00:29:04;;;;;;;6.28;4.88;;;;;;;;;;5047372;28;20215;-64
2024/02/08 00:31:32;;;;;;;5.70;5.05;;;;;;;;;;5039115;28;20197;-65
2024/02/08 00:34:00;;;;;;;6.68;4.90;;;;;;;;;;5051707;28;20506;-65
2024/02/08 00:36:28;;;;;;;8.65;5.53;;;;;;;;;;5052243;28;20227;-66
2024/02/08 00:38:57;;;;;;;7.50;5.10;;;;;;;;;;5033970;28;20201;-65
2024/02/08 00:41:26;;;;;;;6.30;5.63;;;;;;;;;;5038419;28;20197;-64
2024/02/08 00:43:54;;;;;;;5.28;4.65;;;;;;;;;;5049704;28;20204;-65
2024/02/08 00:46:23;;;;;;;6.72;5.03;;;;;;;;;;5036301;28;20595;-65
2024/02/08 00:48:54;;;;;;;5.47;4.97;;;;;;;;;;5033184;28;20197;-64
2024/02/08 00:51:23;;;;;;;6.82;5.55;;;;;;;;;;5044993;28;20246;-64
2024/02/08 00:53:51;;;;;;;6.82;4.55;;;;;;;;;;5039949;28;20675;-65
2024/02/08 00:56:21;;;;;;;4.70;4.25;;;;;;;;;;5036919;28;20228;-64
2024/02/08 00:58:50;;;;;;;5.03;4.53;;;;;;;;;;5033718;28;20216;-64
2024/02/08 01:01:18;;;;;;;6.20;4.65;;;;;;;;;;5051562;28;20294;-65
2024/02/08 01:03:46;;;;;;;5.03;4.53;;;;;;;;;;5046518;28;20278;-64
2024/02/08 01:06:15;;;;;;;5.22;4.70;;;;;;;;;;5051569;28;20709;-64
2024/02/08 01:08:43;;;;;;;4.97;4.55;;;;;;;;;;5046662;28;20205;-64
2024/02/08 01:11:11;;;;;;;7.93;4.75;;;;;;;;;;5048466;28;20207;-64
2024/02/08 01:13:39;;;;;;;8.25;4.50;;;;;;;;;;5050624;28;20667;-64
2024/02/08 01:16:11;;;;;;;5.97;4.75;;;;;;;;;;5051424;28;20230;-65
2024/02/08 01:18:41;;;;;;;5.05;3.80;;;;;;;;;;5051101;28;20236;-64
2024/02/08 01:21:10;;;;;;;6.15;4.43;;;;;;;;;;5051605;28;20262;-64
2024/02/08 01:23:39;;;;;;;6.15;4.88;;;;;;;;;;5050449;28;20667;-67
2024/02/08 01:26:08;;;;;;;7.78;4.82;;;;;;;;;;5050580;28;20201;-66
2024/02/08 01:28:37;;;;;;;5.50;5.00;;;;;;;;;;5037965;28;20200;-67
2024/02/08 01:31:05;;;;;;;6.38;4.95;;;;;;;;;;5034265;28;20205;-67
2024/02/08 01:33:37;;;;;;;7.70;4.65;;;;;;;;;;5041762;28;20207;-64
2024/02/08 01:36:05;;;;;;;5.43;4.18;;;;;;;;;;5046873;28;20193;-64
2024/02/08 01:38:33;;;;;;;5.18;4.78;;;;;;;;;;5045055;28;20201;-64
2024/02/08 01:41:01;;;;;;;7.07;5.28;;;;;;;;;;5036537;28;20238;-64
2024/02/08 01:43:33;;;;;;;7.03;4.18;;;;;;;;;;5050688;28;20224;-64
2024/02/08 01:46:01;;;;;;;5.47;4.30;;;;;;;;;;5043957;28;20408;-65
2024/02/08 01:48:30;;;;;;;7.25;4.25;;;;;;;;;;5064482;28;20210;-66
2024/02/08 01:51:01;;;;;;;7.75;4.68;;;;;;;;;;5069355;28;20228;-67
2024/02/08 01:53:31;;;;;;;5.00;4.50;;;;;;;;;;5049941;28;20562;-66
2024/02/08 01:56:03;;;;;;;5.32;4.82;;;;;;;;;;5050903;28;20698;-66
2024/02/08 01:58:31;;;;;;;4.97;4.60;;;;;;;;;;5050590;28;20196;-66
2024/02/08 02:01:10;;;;;;;5.28;4.65;;;;;;;;;;5049315;28;20703;-64
2024/02/08 02:03:39;;;;;;;5.65;4.10;;;;;;;;;;5040645;28;20225;-65
2024/02/08 02:06:08;;;;;;;4.25;3.95;;;;;;;;;;5048945;28;20219;-64
2024/02/08 02:08:38;;;;;;;4.35;3.95;;;;;;;;;;5050318;28;20200;-64
2024/02/08 02:11:11;;;;;;;6.53;4.90;;;;;;;;;;5050722;28;20215;-64
2024/02/08 02:13:40;;;;;;;4.30;3.90;;;;;;;;;;5050433;28;20185;-64
2024/02/08 02:16:08;;;;;;;4.63;4.22;;;;;;;;;;5044722;28;20200;-64
2024/02/08 02:18:36;;;;;;;4.40;3.92;;;;;;;;;;5036309;28;20560;-67
2024/02/08 02:21:05;;;;;;;4.55;4.15;;;;;;;;;;5040797;28;20208;-67
2024/02/08 02:23:34;;;;;;;4.07;3.80;;;;;;;;;;5050152;28;20651;-67
2024/02/08 02:26:04;;;;;;;5.10;4.60;;;;;;;;;;5050176;28;20205;-67
2024/02/08 02:28:33;;;;;;;4.50;4.10;;;;;;;;;;5049633;28;20914;-64
2024/02/08 02:31:05;;;;;;;7.07;4.75;;;;;;;;;;5050656;28;20696;-64
2024/02/08 02:33:34;;;;;;;6.88;3.65;;;;;;;;;;5049677;28;20189;-65
2024/02/08 02:36:03;;;;;;;7.47;4.32;;;;;;;;;;5046101;28;20609;-64
2024/02/08 02:38:31;;;;;;;4.07;3.78;;;;;;;;;;5030926;28;20201;-66
2024/02/08 02:41:06;;;;;;;4.93;4.20;;;;;;;;;;5029663;28;20204;-64
2024/02/08 02:43:36;;;;;;;4.55;3.70;;;;;;;;;;5033162;28;20537;-64
2024/02/08 02:46:05;;;;;;;3.70;3.40;;;;;;;;;;5033046;28;20573;-64
2024/02/08 02:48:34;;;;;;;3.92;3.63;;;;;;;;;;5029593;28;20595;-65
2024/02/08 02:51:03;;;;;;;3.88;3.58;;;;;;;;;;5044831;28;20215;-64
2024/02/08 02:53:31;;;;;;;4.45;3.92;;;;;;;;;;5047354;28;20192;-65
2024/02/08 02:56:00;;;;;;;3.55;3.25;;;;;;;;;;5043295;28;20204;-65
2024/02/08 02:58:31;;;;;;;15.13;5.68;;;;;;;;;;5049283;28;20201;-65
2024/02/08 03:01:04;;;;;;;5.03;4.50;;;;;;;;;;5043506;28;20707;-64
2024/02/08 03:03:37;;;;;;;3.22;2.92;;;;;;;;;;5034830;28;20217;-64
2024/02/08 03:06:13;;;;;;;6.03;4.00;;;;;;;;;;5046509;28;20196;-64
2024/02/08 03:08:42;;;;;;;3.63;3.33;;;;;;;;;;5049045;28;20189;-63
2024/02/08 03:11:12;;;;;;;3.90;3.60;;;;;;;;;;5047479;28;20207;-63
2024/02/08 03:13:41;;;;;;;3.33;3.08;;;;;;;;;;5048944;28;20199;-63
2024/02/08 03:16:10;;;;;;;4.00;3.60;;;;;;;;;;5043747;28;20323;-64
2024/02/08 03:18:43;;;;;;;6.30;3.40;;;;;;;;;;5043089;28;20212;-65
2024/02/08 03:21:17;;;;;;;6.00;5.50;;;;;;;;;;5030195;28;20229;-64
2024/02/08 03:23:46;;;;;;;5.88;3.53;;;;;;;;;;5034258;28;20536;-64
2024/02/08 03:26:17;;;;;;;4.10;3.80;;;;;;;;;;5033105;28;20668;-65
2024/02/08 03:28:46;;;;;;;5.38;4.88;;;;;;;;;;5028685;28;20185;-64
2024/02/08 03:31:14;;;;;;;4.47;2.53;;;;;;;;;;5030681;28;20201;-64
2024/02/08 03:33:43;;;;;;;8.95;3.40;;;;;;;;;;5031636;28;20576;-64
2024/02/08 03:36:12;;;;;;;5.90;5.28;;;;;;;;;;5041023;28;20766;-63
2024/02/08 03:38:40;;;;;;;5.95;3.45;;;;;;;;;;5031914;28;20193;-64
2024/02/08 03:41:07;;;;;;;3.83;3.50;;;;;;;;;;5044758;28;20209;-63
2024/02/08 03:43:38;;;;;;;3.03;2.80;;;;;;;;;;5048644;28;20225;-63
2024/02/08 03:46:07;;;;;;;2.50;2.30;;;;;;;;;;5044044;28;20193;-63
2024/02/08 03:48:35;;;;;;;4.82;3.50;;;;;;;;;;5030216;28;20205;-63
2024/02/08 03:51:04;;;;;;;3.10;2.80;;;;;;;;;;5040382;28;20209;-63
2024/02/08 03:53:36;;;;;;;3.05;2.85;;;;;;;;;;5033425;28;20193;-63
2024/02/08 03:56:06;;;;;;;3.58;3.38;;;;;;;;;;5049171;28;20260;-63
2024/02/08 03:58:36;;;;;;;4.93;4.63;;;;;;;;;;5048510;28;20215;-63
2024/02/08 04:01:08;;;;;;;6.28;3.90;;;;;;;;;;5049013;28;20207;-63
2024/02/08 04:03:53;;;;;;;3.10;2.88;;;;;;;;;;5048191;28;20554;-63
2024/02/08 04:06:37;;;;;;;3.28;3.03;;;;;;;;;;5048297;28;20643;-63
2024/02/08 04:09:16;;;;;;;3.38;3.17;;;;;;;;;;5047247;28;20193;-64
2024/02/08 04:53:38;;;;;;;3.75;3.05;;;;;;;;;;5040663;28;20205;-66
2024/02/08 04:56:08;;;;;;;2.95;2.75;;;;;;;;;;5050153;28;20230;-64
2024/02/08 04:58:39;;;;;;;2.53;2.42;;;;;;;;;;5050390;28;20207;-63
2024/02/08 05:01:08;;;;;;;3.58;2.30;;;;;;;;;;5050500;28;20350;-64
2024/02/08 05:03:38;;;;;;;2.25;2.05;;;;;;;;;;5050088;28;20227;-64
2024/02/08 05:06:11;;;;;;;4.32;2.10;;;;;;;;;;5051087;28;20219;-65
2024/02/08 05:08:39;;;;;;;2.17;1.85;;;;;;;;;;5051777;28;20193;-64
2024/02/08 05:11:09;;;;;;;2.95;2.20;;;;;;;;;;5051192;28;20207;-64
2024/02/08 05:13:40;;;;;;;2.97;2.08;;;;;;;;;;5049603;28;20204;-65
2024/02/08 05:16:14;;;;;;;2.45;2.25;;;;;;;;;;5051896;28;20219;-64
2024/02/08 05:18:42;;;;;;;2.50;2.40;;;;;;;;;;5050846;28;20211;-64
2024/02/08 05:21:13;;;;;;;2.70;2.50;;;;;;;;;;5037440;28;21128;-64
2024/02/08 05:23:41;;;;;;;1.80;1.70;;;;;;;;;;5034146;28;20197;-64
2024/02/08 05:26:10;;;;;;;2.15;2.00;;;;;;;;;;5042613;28;20271;-64
2024/02/08 05:28:43;;;;;;;1.73;1.63;;;;;;;;;;5048057;28;20226;-64
2024/02/08 05:31:11;;;;;;;1.67;1.58;;;;;;;;;;5050573;28;20197;-64
2024/02/08 05:33:40;;;;;;;1.65;1.55;;;;;;;;;;5051506;28;20207;-64
2024/02/08 05:36:09;;;;;;;2.15;2.05;;;;;;;;;;5034558;28;20197;-64
2024/02/08 05:38:41;;;;;;;2.75;1.90;;;;;;;;;;5051266;28;20204;-65
2024/02/08 05:41:09;;;;;;;1.80;1.70;;;;;;;;;;5042671;28;20193;-64
2024/02/08 05:43:44;;;;;;;1.88;1.77;;;;;;;;;;5049552;28;20258;-64
2024/02/08 05:46:14;;;;;;;2.60;2.40;;;;;;;;;;5049745;28;20693;-64
2024/02/08 05:48:43;;;;;;;2.70;2.05;;;;;;;;;;5038010;28;20677;-65
2024/02/08 05:51:12;;;;;;;2.13;1.90;;;;;;;;;;5031373;28;20550;-64
2024/02/08 05:53:42;;;;;;;2.53;2.10;;;;;;;;;;5035725;28;20207;-64
2024/02/08 05:56:11;;;;;;;3.80;2.63;;;;;;;;;;5051008;28;20193;-64
2024/02/08 05:58:39;;;;;;;2.53;2.33;;;;;;;;;;5042780;28;20659;-64
2024/02/08 06:01:16;;;;;;;2.08;1.90;;;;;;;;;;5030086;28;20235;-65
2024/02/08 06:03:47;;;;;;;2.25;2.08;;;;;;;;;;5046918;28;20257;-64
2024/02/08 06:06:26;;;;;;;3.10;2.13;;;;;;;;;;5043918;28;20211;-65
2024/02/08 06:08:57;;;;;;;1.80;1.70;;;;;;;;;;5048005;28;20188;-65
2024/02/08 06:11:27;;;;;;;4.05;2.08;;;;;;;;;;5039124;28;20195;-64
2024/02/08 06:13:58;;;;;;;2.00;1.85;;;;;;;;;;5039989;28;20619;-65
2024/02/08 06:16:27;;;;;;;4.53;1.80;;;;;;;;;;5020051;28;20189;-64
2024/02/08 06:19:02;;;;;;;4.18;1.80;;;;;;;;;;5031330;28;20212;-64
2024/02/08 06:21:40;;;;;;;2.53;2.30;;;;;;;;;;5048526;28;20598;-64
2024/02/08 06:26:55;;;;;;;2.00;1.90;;;;;;;;;;5047002;28;20196;-64
2024/02/08 06:29:26;;;;;;;2.83;2.33;;;;;;;;;;5042512;28;20190;-64
2024/02/08 06:32:08;;;;;;;2.55;2.35;;;;;;;;;;5031271;28;20239;-64
2024/02/08 06:34:45;;;;;;;2.53;2.30;;;;;;;;;;5038180;28;20640;-65
2024/02/08 06:37:26;;;;;;;3.17;2.90;;;;;;;;;;5049567;28;20204;-65
2024/02/08 06:39:57;;;;;;;2.75;2.55;;;;;;;;;;5049169;28;20279;-64
2024/02/08 07:38:08;;;;;;;2.15;2.05;;;;;;;;;;5061279;28;20667;-63
2024/02/08 07:40:36;;;;;;;2.63;2.42;;;;;;;;;;5055182;28;20632;-63
2024/02/08 07:43:19;;;;;;;6.90;2.40;;;;;;;;;;5053244;28;20279;-62
2024/02/08 07:45:51;;;;;;;2.60;2.35;;;;;;;;;;5043830;28;20204;-64
2024/02/08 07:48:37;;;;;;;3.10;2.05;;;;;;;;;;5038329;28;20245;-64
2024/02/08 07:51:06;;;;;;;2.67;1.55;;;;;;;;;;5041841;28;20280;-64
2024/02/08 07:53:50;;;;;;;2.70;2.50;;;;;;;;;;5054654;28;20307;-63
2024/02/08 07:56:37;;;;;;;2.25;1.80;;;;;;;;;;5037187;28;20633;-63
2024/02/08 07:59:06;;;;;;;4.97;1.73;;;;;;;;;;5037209;28;20276;-62
2024/02/08 08:01:39;;;;;;;1.90;1.80;;;;;;;;;;5037085;28;20296;-67
2024/02/08 08:04:09;;;;;;;1.60;1.50;;;;;;;;;;5042143;28;20245;-64
2024/02/08 08:06:46;;;;;;;1.80;1.60;;;;;;;;;;5058792;28;20303;-62
2024/02/08 08:09:21;;;;;;;1.50;1.40;;;;;;;;;;5061510;28;20248;-66
2024/02/08 08:11:51;;;;;;;2.47;1.45;;;;;;;;;;5052319;28;20272;-63
2024/02/08 08:17:40;;;;;;;1.80;1.70;;;;;;;;;;5042307;28;20197;-64
2024/02/08 08:20:46;;;;;;;1.63;1.52;;;;;;;;;;5052324;28;20192;-63
2024/02/08 08:23:25;;;;;;;2.28;1.80;;;;;;;;;;5060714;28;20331;-66
2024/02/08 08:28:53;;;;;;;3.15;1.92;;;;;;;;;;5058981;28;20310;-65
2024/02/08 08:31:35;;;;;;;1.70;1.60;;;;;;;;;;5056086;28;20201;-62
2024/02/08 08:36:57;;;;;;;1.73;1.60;;;;;;;;;;5062495;28;20279;-64
2024/02/08 08:39:46;;;;;;;2.00;1.80;;;;;;;;;;5061059;28;20726;-63
2024/02/08 08:42:17;;;;;;;1.50;1.40;;;;;;;;;;5062665;28;20288;-62
2024/02/08 08:44:48;;;;;;;1.80;1.70;;;;;;;;;;5063155;28;20672;-64
2024/02/08 08:47:17;;;;;;;1.98;1.88;;;;;;;;;;5042931;28;20261;-63
2024/02/08 08:49:50;;;;;;;1.60;1.50;;;;;;;;;;5049038;28;20264;-63
2024/02/08 08:52:23;;;;;;;2.80;1.70;;;;;;;;;;5064307;28;20279;-66
2024/02/08 08:55:01;;;;;;;2.78;1.90;;;;;;;;;;5064161;28;20252;-64
2024/02/08 08:57:29;;;;;;;2.00;1.88;;;;;;;;;;5063419;28;20232;-63
2024/02/08 08:59:59;;;;;;;1.80;1.70;;;;;;;;;;5063972;28;20256;-64
2024/02/08 09:02:29;;;;;;;1.30;1.20;;;;;;;;;;5061730;28;20288;-64
2024/02/08 09:04:59;;;;;;;1.80;1.70;;;;;;;;;;5061245;28;20252;-64
2024/02/08 09:07:31;;;;;;;1.95;1.77;;;;;;;;;;5063694;28;20549;-65
2024/02/08 09:10:00;;;;;;;1.95;1.83;;;;;;;;;;5064660;28;20265;-64
2024/02/08 09:12:36;;;;;;;2.28;1.33;;;;;;;;;;5062137;28;20189;-63
2024/02/08 09:17:52;;;;;;;1.65;1.55;;;;;;;;;;5063300;28;20267;-64
2024/02/08 09:20:28;;;;;;;1.27;1.25;;;;;;;;;;5059031;28;20603;-63
2024/02/08 09:22:58;;;;;;;1.25;1.23;;;;;;;;;;5063528;28;20291;-66
2024/02/08 09:25:26;;;;;;;1.35;1.25;;;;;;;;;;5063971;28;20431;-63
2024/02/08 09:27:57;;;;;;;1.50;1.40;;;;;;;;;;5061456;28;20295;-63
2024/02/08 09:30:38;;;;;;;1.65;1.05;;;;;;;;;;5059739;28;20646;-62
2024/02/08 09:33:14;;;;;;;1.42;1.33;;;;;;;;;;5061533;28;20611;-64
2024/02/08 09:35:44;;;;;;;1.58;1.40;;;;;;;;;;5057079;28;20243;-63
2024/02/08 09:38:18;;;;;;;1.35;1.25;;;;;;;;;;5056553;28;20304;-63
2024/02/08 09:40:51;;;;;;;1.25;1.15;;;;;;;;;;5055921;28;20244;-63
2024/02/08 09:43:19;;;;;;;1.92;1.20;;;;;;;;;;5056320;28;20268;-64
2024/02/08 09:46:01;;;;;;;1.40;1.30;;;;;;;;;;5057362;28;20792;-64
2024/02/08 09:48:36;;;;;;;2.00;1.80;;;;;;;;;;5056818;28;20276;-64
2024/02/08 09:51:13;;;;;;;1.35;1.20;;;;;;;;;;5056417;28;20207;-64
2024/02/08 09:53:51;;;;;;;1.30;1.20;;;;;;;;;;5056021;28;20267;-63
2024/02/08 09:56:28;;;;;;;1.30;1.20;;;;;;;;;;5051176;28;20694;-65
2024/02/08 09:59:02;;;;;;;1.10;1.00;;;;;;;;;;5053530;28;20196;-64
2024/02/08 10:01:42;;;;;;;1.52;1.42;;;;;;;;;;5056047;28;20185;-63
2024/02/08 10:04:16;;;;;;;1.02;1.02;;;;;;;;;;5053021;28;20248;-64
2024/02/08 10:06:58;;;;;;;1.35;1.25;;;;;;;;;;5054936;28;20204;-63
2024/02/08 10:09:40;;;;;;;2.22;1.20;;;;;;;;;;5055207;28;20189;-63
2024/02/08 10:12:16;;;;;;;1.30;1.20;;;;;;;;;;5055311;28;20591;-65
2024/02/08 10:14:47;;;;;;;1.60;1.20;;;;;;;;;;5058979;28;20272;-63
2024/02/08 10:17:15;;;;;;;1.38;1.27;;;;;;;;;;5055626;28;20263;-65
2024/02/08 10:22:53;;;;;;;1.73;1.60;;;;;;;;;;5053922;28;20283;-62
2024/02/08 10:28:09;;;;;;;1.40;1.40;;;;;;;;;;5055756;28;20272;-63
2024/02/08 10:30:37;;;;;;;1.60;1.40;;;;;;;;;;5056732;28;20275;-64
2024/02/08 10:33:10;;;;;;;1.98;1.30;;;;;;;;;;5056050;28;20212;-64
2024/02/08 10:35:40;;;;;;;2.85;1.50;;;;;;;;;;5055985;28;20256;-66
2024/02/08 10:38:29;;;;;;;2.08;1.00;;;;;;;;;;5042323;28;20260;-63
2024/02/08 10:40:58;;;;;;;1.50;1.40;;;;;;;;;;5043177;28;20231;-64
2024/02/08 10:43:37;;;;;;;1.50;1.40;;;;;;;;;;5052500;28;20212;-62
2024/02/08 10:46:16;;;;;;;1.70;1.35;;;;;;;;;;5052285;28;20217;-63
2024/02/08 10:48:48;;;;;;;1.50;1.40;;;;;;;;;;5051177;28;20199;-68
2024/02/08 10:51:25;;;;;;;6.18;1.20;;;;;;;;;;5048837;28;20274;-66
2024/02/08 10:54:05;;;;;;;1.20;1.13;;;;;;;;;;5049369;28;20219;-66
2024/02/08 10:56:44;;;;;;;1.35;1.25;;;;;;;;;;5027767;28;20282;-66
2024/02/08 10:59:14;;;;;;;1.10;1.10;;;;;;;;;;5049027;28;20820;-66
2024/02/08 11:02:08;;;;;;;2.93;1.07;;;;;;;;;;5015237;28;20222;-66
2024/02/08 11:04:40;;;;;;;0.90;0.90;;;;;;;;;;5048604;28;20584;-66
2024/02/08 11:07:17;;;;;;;1.05;1.05;;;;;;;;;;5049032;28;20205;-66
2024/02/08 11:09:47;;;;;;;1.77;1.05;;;;;;;;;;5029271;28;20639;-66
2024/02/08 11:12:21;;;;;;;2.08;1.08;;;;;;;;;;5045478;28;20200;-66
2024/02/08 11:14:53;;;;;;;1.05;1.00;;;;;;;;;;5049281;28;20185;-65
2024/02/08 11:17:23;;;;;;;0.80;0.80;;;;;;;;;;5049882;28;20647;-65
2024/02/08 11:19:56;;;;;;;6.90;0.98;;;;;;;;;;5049994;28;20193;-66
2024/02/08 11:22:39;;;;;;;3.17;1.48;;;;;;;;;;5049946;28;20237;-66
2024/02/08 11:25:23;;;;;;;1.77;1.20;;;;;;;;;;5049681;28;20196;-65
2024/02/08 11:27:55;;;;;;;1.00;0.85;;;;;;;;;;5049709;28;20235;-65
2024/02/08 11:30:33;;;;;;;2.38;1.20;;;;;;;;;;5049892;28;20218;-66
2024/02/08 11:33:03;;;;;;;1.60;1.50;;;;;;;;;;5049816;28;20639;-65
2024/02/08 11:35:32;;;;;;;2.63;1.48;;;;;;;;;;5050046;28;20197;-66
2024/02/08 11:38:15;;;;;;;1.90;1.02;;;;;;;;;;5049102;28;20193;-66
2024/02/08 11:40:48;;;;;;;1.20;1.20;;;;;;;;;;5050113;28;20236;-66
2024/02/08 11:43:23;;;;;;;1.27;1.27;;;;;;;;;;5048105;28;20572;-66
2024/02/08 11:45:52;;;;;;;1.30;1.20;;;;;;;;;;5040425;28;20185;-65
2024/02/08 11:48:27;;;;;;;1.30;1.20;;;;;;;;;;5040154;28;20209;-66
2024/02/08 11:50:59;;;;;;;9.45;1.65;;;;;;;;;;5039093;28;20207;-66
2024/02/08 11:53:33;;;;;;;2.15;1.27;;;;;;;;;;5038180;28;20262;-67
2024/02/08 11:56:07;;;;;;;1.30;1.20;;;;;;;;;;5042006;28;20663;-68
2024/02/08 11:58:41;;;;;;;6.18;1.65;;;;;;;;;;5035667;28;20699;-68
2024/02/08 12:01:13;;;;;;;1.50;1.40;;;;;;;;;;5029463;28;20193;-68
2024/02/08 12:03:42;;;;;;;3.95;1.60;;;;;;;;;;5029116;28;20191;-67
2024/02/08 12:06:22;;;;;;;4.82;1.88;;;;;;;;;;5035379;28;20228;-67
2024/02/08 12:08:59;;;;;;;2.30;1.95;;;;;;;;;;5037085;28;20200;-70
2024/02/08 12:11:30;;;;;;;2.17;1.35;;;;;;;;;;5036509;28;20606;-67
2024/02/08 12:13:59;;;;;;;2.25;1.50;;;;;;;;;;5037434;28;20204;-67
2024/02/08 12:16:27;;;;;;;3.72;2.67;;;;;;;;;;5035462;28;20200;-67
2024/02/08 12:18:56;;;;;;;2.45;1.75;;;;;;;;;;5040719;28;20205;-67
2024/02/08 12:21:25;;;;;;;6.10;1.85;;;;;;;;;;5039788;28;20230;-67
2024/02/08 12:23:54;;;;;;;1.60;1.50;;;;;;;;;;5038784;28;20658;-68
2024/02/08 12:26:23;;;;;;;3.20;1.70;;;;;;;;;;5040384;28;20201;-68
2024/02/08 12:28:56;;;;;;;3.13;1.50;;;;;;;;;;5041653;28;20204;-67
2024/02/08 12:31:29;;;;;;;5.35;3.08;;;;;;;;;;5050081;28;20195;-67
2024/02/08 12:33:59;;;;;;;11.82;2.13;;;;;;;;;;5035525;28;20205;-71
2024/02/08 12:36:30;;;;;;;4.03;1.95;;;;;;;;;;5041539;28;20558;-67
2024/02/08 12:39:00;;;;;;;8.98;2.00;;;;;;;;;;5036581;28;20197;-67
2024/02/08 12:41:29;;;;;;;3.65;2.40;;;;;;;;;;5029179;28;20275;-67
2024/02/08 12:43:58;;;;;;;2.25;1.77;;;;;;;;;;5037945;28;20201;-67
2024/02/08 12:46:27;;;;;;;4.90;2.20;;;;;;;;;;5049272;28;20763;-67
2024/02/08 12:48:55;;;;;;;2.85;2.35;;;;;;;;;;5042353;28;20312;-67
2024/02/08 12:51:23;;;;;;;3.40;1.90;;;;;;;;;;5037915;28;20254;-67
2024/02/08 12:53:57;;;;;;;4.03;1.50;;;;;;;;;;5041862;28;20202;-67
2024/02/08 12:56:25;;;;;;;2.37;1.80;;;;;;;;;;5044457;28;20954;-67
2024/02/08 12:59:01;;;;;;;2.63;2.08;;;;;;;;;;5038034;28;20591;-67
2024/02/08 13:01:34;;;;;;;12.83;1.87;;;;;;;;;;5038681;28;20211;-67
2024/02/08 13:04:02;;;;;;;4.93;1.80;;;;;;;;;;5038856;28;20589;-67
2024/02/08 13:06:30;;;;;;;7.32;2.25;;;;;;;;;;5040541;28;20710;-67
2024/02/08 13:09:25;;;;;;;3.65;1.90;;;;;;;;;;5035677;28;20231;-67
2024/02/08 13:12:14;;;;;;;5.23;1.50;;;;;;;;;;5045670;28;20208;-67
2024/02/08 13:14:48;;;;;;;1.40;1.30;;;;;;;;;;5045684;28;20613;-67
2024/02/08 13:17:18;;;;;;;3.47;1.83;;;;;;;;;;5047431;28;20195;-67
2024/02/08 13:19:48;;;;;;;1.75;1.50;;;;;;;;;;5047895;28;20614;-67
2024/02/08 13:22:21;;;;;;;1.73;1.43;;;;;;;;;;5047276;28;20238;-67
2024/02/08 13:24:51;;;;;;;3.17;1.63;;;;;;;;;;5045121;28;20611;-67
2024/02/08 13:27:20;;;;;;;5.27;2.20;;;;;;;;;;5048809;28;20621;-68
2024/02/08 13:29:51;;;;;;;4.10;1.50;;;;;;;;;;5037169;28;20660;-67
2024/02/08 13:32:19;;;;;;;3.40;1.80;;;;;;;;;;5050934;28;20600;-68
2024/02/08 13:34:48;;;;;;;5.68;2.00;;;;;;;;;;5051311;28;20597;-67
2024/02/08 13:37:17;;;;;;;4.00;1.77;;;;;;;;;;5050274;28;20204;-67
2024/02/08 13:39:45;;;;;;;5.13;2.27;;;;;;;;;;5037958;28;20211;-68
2024/02/08 13:42:19;;;;;;;5.13;2.10;;;;;;;;;;5049188;28;20692;-67
2024/02/08 13:44:48;;;;;;;2.87;1.73;;;;;;;;;;5037138;28;20609;-67
2024/02/08 13:47:17;;;;;;;7.35;1.80;;;;;;;;;;5049429;28;21182;-68
2024/02/08 13:49:49;;;;;;;6.43;2.30;;;;;;;;;;5050085;28;20209;-67
2024/02/08 13:52:17;;;;;;;5.83;1.80;;;;;;;;;;5050988;28;20193;-68
2024/02/08 13:54:48;;;;;;;3.23;2.07;;;;;;;;;;5048370;28;20682;-67
2024/02/08 13:57:17;;;;;;;2.77;2.40;;;;;;;;;;5033349;28;20622;-67
2024/02/08 13:59:48;;;;;;;2.40;1.73;;;;;;;;;;5038724;28;20619;-68
2024/02/08 14:02:18;;;;;;;6.63;2.30;;;;;;;;;;5039475;28;20656;-68
2024/02/08 14:04:49;;;;;;;4.80;1.83;;;;;;;;;;5044943;28;20641;-68
2024/02/08 14:07:24;;;;;;;8.10;3.73;;;;;;;;;;5041562;28;20596;-67
2024/02/08 14:09:58;;;;;;;4.33;2.20;;;;;;;;;;5040549;28;20625;-68
2024/02/08 14:12:26;;;;;;;4.90;2.27;;;;;;;;;;5043919;28;20656;-67
2024/02/08 14:14:59;;;;;;;3.87;2.40;;;;;;;;;;5042351;28;21147;-67
2024/02/08 14:17:34;;;;;;;6.80;2.20;;;;;;;;;;5050117;28;20622;-68
2024/02/08 14:20:05;;;;;;;6.30;2.33;;;;;;;;;;5064275;28;20586;-68
2024/02/08 14:22:38;;;;;;;6.30;3.13;;;;;;;;;;5069005;28;20646;-67
2024/02/08 14:25:23;;;;;;;6.53;2.00;;;;;;;;;;5052407;28;20610;-67
2024/02/08 14:27:54;;;;;;;11.80;2.50;;;;;;;;;;5047717;28;20649;-68
2024/02/08 14:30:23;;;;;;;6.80;3.00;;;;;;;;;;5047004;28;20633;-67
2024/02/08 14:32:52;;;;;;;10.07;3.10;;;;;;;;;;5049612;28;20626;-68
2024/02/08 14:35:22;;;;;;;12.80;3.33;;;;;;;;;;5049861;28;20589;-67
2024/02/08 14:37:52;;;;;;;5.73;2.77;;;;;;;;;;5049035;28;20607;-68
2024/02/08 14:40:20;;;;;;;6.80;2.70;;;;;;;;;;5054037;28;20644;-68
2024/02/08 14:42:49;;;;;;;15.37;3.30;;;;;;;;;;5036533;28;21157;-67
2024/02/08 14:45:19;;;;;;;8.77;3.57;;;;;;;;;;5041295;28;20783;-67
2024/02/08 14:47:51;;;;;;;9.27;2.87;;;;;;;;;;5050434;28;21154;-66
2024/02/08 14:53:06;;;;;;;6.60;2.90;;;;;;;;;;5046255;28;21156;-68
2024/02/08 14:55:35;;;;;;;11.40;3.60;;;;;;;;;;5049070;28;20681;-67
2024/02/08 14:58:04;;;;;;;9.13;3.20;;;;;;;;;;5041983;28;20634;-67
2024/02/08 15:00:50;;;;;;;6.23;2.77;;;;;;;;;;5049868;28;20616;-67
2024/02/08 15:03:27;;;;;;;9.80;3.53;;;;;;;;;;5048024;28;20603;-67
2024/02/08 15:06:00;;;;;;;9.53;3.10;;;;;;;;;;5044825;28;20603;-68
2024/02/08 15:08:38;;;;;;;10.40;2.90;;;;;;;;;;5047047;28;20642;-67
2024/02/08 15:11:15;;;;;;;9.53;2.70;;;;;;;;;;5036864;28;20627;-67
2024/02/08 15:13:45;;;;;;;11.10;3.50;;;;;;;;;;5046652;28;20588;-67
2024/02/08 15:16:21;;;;;;;11.95;3.35;;;;;;;;;;5047075;28;20591;-68
2024/02/08 15:18:53;;;;;;;11.30;3.43;;;;;;;;;;5049338;28;20199;-68
2024/02/08 15:21:23;;;;;;;11.03;4.67;;;;;;;;;;5048123;28;21004;-68
2024/02/08 15:26:47;;;;;;;16.53;4.13;;;;;;;;;;5046940;28;20569;-68
2024/02/08 15:29:30;;;;;;;7.47;3.37;;;;;;;;;;5045520;28;20638;-68
2024/02/08 15:32:01;;;;;;;3.42;2.38;;;;;;;;;;5045947;28;20607;-67
2024/02/08 15:34:43;;;;;;;8.80;3.20;;;;;;;;;;5046360;28;20560;-68
2024/02/08 15:37:20;;;;;;;13.47;3.70;;;;;;;;;;5039249;28;21030;-67
2024/02/08 15:40:09;;;;;;;16.97;4.37;;;;;;;;;;5038267;28;21467;-67
2024/02/08 15:42:39;;;;;;;10.40;3.83;;;;;;;;;;5046598;28;20611;-67
2024/02/08 15:45:13;;;;;;;8.17;4.63;;;;;;;;;;5046981;28;20587;-68
2024/02/08 15:48:00;;;;;;;14.90;3.30;;;;;;;;;;5047277;28;20607;-67
2024/02/08 15:50:46;;;;;;;20.77;3.77;;;;;;;;;;5030369;28;20583;-67
2024/02/08 15:53:19;;;;;;;17.03;4.30;;;;;;;;;;5029399;28;21157;-67
2024/02/08 15:55:49;;;;;;;12.47;4.93;;;;;;;;;;5038277;28;20682;-67
2024/02/08 15:58:18;;;;;;;17.40;3.20;;;;;;;;;;5044840;28;20659;-67
2024/02/08 16:01:10;;;;;;;8.30;3.73;;;;;;;;;;5042509;28;20622;-68
2024/02/08 16:03:40;;;;;;;16.40;4.43;;;;;;;;;;5035609;28;20583;-67
2024/02/08 16:08:56;;;;;;;8.43;4.03;;;;;;;;;;5042347;28;20662;-68
2024/02/08 16:11:29;;;;;;;11.70;4.30;;;;;;;;;;5043495;28;20622;-68
2024/02/08 16:14:04;;;;;;;11.30;4.00;;;;;;;;;;5047322;28;20586;-68
2024/02/08 16:16:32;;;;;;;13.00;4.23;;;;;;;;;;5031643;28;20607;-68
2024/02/08 16:19:22;;;;;;;10.40;4.20;;;;;;;;;;5031218;28;20620;-68
2024/02/08 16:21:49;;;;;;;20.60;4.80;;;;;;;;;;5038800;28;20674;-68
2024/02/08 16:24:18;;;;;;;10.40;3.60;;;;;;;;;;5048229;28;20597;-65
2024/02/08 16:26:56;;;;;;;15.20;4.10;;;;;;;;;;5046117;28;20619;-66
2024/02/08 16:29:34;;;;;;;15.60;4.63;;;;;;;;;;5046441;28;20650;-66
2024/02/08 16:32:19;;;;;;;12.80;4.40;;;;;;;;;;5037634;28;20575;-66
2024/02/08 16:34:53;;;;;;;16.93;7.27;;;;;;;;;;5028954;28;20588;-66
2024/02/08 16:37:43;;;;;;;22.37;5.10;;;;;;;;;;5047039;28;20587;-66
2024/02/08 16:40:17;;;;;;;9.43;4.67;;;;;;;;;;5047462;28;20583;-66
2024/02/08 16:42:47;;;;;;;10.43;4.80;;;;;;;;;;5027546;28;20592;-66
2024/02/08 16:45:27;;;;;;;19.87;9.73;;;;;;;;;;5031815;28;20576;-66
2024/02/08 16:48:08;;;;;;;11.98;5.40;;;;;;;;;;5050572;28;20573;-66
2024/02/08 16:50:45;;;;;;;19.00;9.87;;;;;;;;;;5051928;28;20193;-66
2024/02/08 16:53:19;;;;;;;7.70;4.50;;;;;;;;;;5051603;28;20590;-66
2024/02/08 16:55:53;;;;;;;12.73;5.33;;;;;;;;;;5050936;28;20599;-66
2024/02/08 16:58:31;;;;;;;10.70;4.83;;;;;;;;;;5034585;28;20670;-66
2024/02/08 17:01:05;;;;;;;13.30;5.27;;;;;;;;;;5033387;28;21171;-66
2024/02/08 17:04:00;;;;;;;17.50;5.80;;;;;;;;;;5049301;28;20947;-66
2024/02/08 17:06:34;;;;;;;12.93;5.47;;;;;;;;;;5042799;28;20617;-66
2024/02/08 17:09:15;;;;;;;15.50;5.73;;;;;;;;;;5031973;28;20617;-66
2024/02/08 17:11:48;;;;;;;21.73;5.37;;;;;;;;;;5043554;28;20964;-66
2024/02/08 17:14:32;;;;;;;15.23;6.03;;;;;;;;;;5048755;28;20578;-66
2024/02/08 17:17:08;;;;;;;16.23;5.27;;;;;;;;;;5041565;28;20606;-66
2024/02/08 17:25:25;;;;;;;16.20;5.73;;;;;;;;;;5040067;28;21110;-67